createdAt,value
2024-02-26T00:02:05.222Z,3.12
2024-02-26T00:04:32.529Z,3.11
2024-02-26T00:06:59.926Z,3.12
2024-02-26T00:09:27.235Z,3.13
2024-02-26T00:11:54.600Z,3.15
2024-02-26T00:14:21.869Z,3.21
2024-02-26T00:16:49.160Z,3.26
2024-02-26T00:19:16.575Z,3.29
2024-02-26T00:21:43.954Z,3.33
2024-02-26T00:24:11.393Z,3.36
2024-02-26T00:26:38.674Z,3.37
2024-02-26T00:29:06.104Z,3.41
2024-02-26T00:31:33.457Z,3.44
2024-02-26T00:34:02.154Z,3.45
2024-02-26T00:36:29.657Z,3.48
2024-02-26T00:38:57.118Z,3.50
2024-02-26T00:41:24.753Z,3.52
2024-02-26T00:43:51.965Z,3.54
2024-02-26T00:46:19.349Z,3.57
2024-02-26T00:48:46.696Z,3.59
2024-02-26T00:51:14.140Z,3.60
2024-02-26T00:53:41.446Z,3.62
2024-02-26T00:56:08.803Z,3.62
2024-02-26T00:58:36.032Z,3.65
2024-02-26T01:01:04.509Z,3.64
2024-02-26T01:03:31.864Z,3.60
2024-02-26T01:05:59.903Z,3.56
2024-02-26T01:08:27.415Z,3.52
2024-02-26T01:10:54.749Z,3.48
2024-02-26T01:13:22.020Z,3.45
2024-02-26T01:15:49.391Z,3.38
2024-02-26T01:18:16.807Z,3.31
2024-02-26T01:20:44.241Z,3.23
2024-02-26T01:23:11.543Z,3.13
2024-02-26T01:25:38.939Z,3.02
2024-02-26T01:28:06.862Z,2.92
2024-02-26T01:30:34.320Z,2.86
2024-02-26T01:33:01.758Z,2.79
2024-02-26T01:35:29.078Z,2.63
2024-02-26T01:37:56.960Z,2.55
2024-02-26T01:40:24.341Z,2.50
2024-02-26T01:42:54.166Z,2.44
2024-02-26T01:45:26.508Z,2.40
2024-02-26T01:47:54.502Z,2.31
2024-02-26T01:50:23.707Z,2.26
2024-02-26T01:52:51.722Z,2.21
2024-02-26T01:55:20.007Z,2.18
2024-02-26T01:57:48.008Z,2.17
2024-02-26T02:00:16.396Z,2.14
2024-02-26T02:02:45.274Z,2.12
2024-02-26T02:05:13.317Z,2.08
2024-02-26T02:07:40.905Z,2.00
2024-02-26T02:10:08.972Z,1.95
2024-02-26T02:12:37.349Z,1.90
2024-02-26T02:15:05.518Z,1.83
2024-02-26T02:17:32.964Z,1.77
2024-02-26T02:20:00.350Z,1.72
2024-02-26T02:22:27.782Z,1.69
2024-02-26T02:24:55.075Z,1.67
2024-02-26T02:27:22.752Z,1.65
2024-02-26T02:29:50.430Z,1.59
2024-02-26T02:32:17.927Z,1.57
2024-02-26T02:34:45.854Z,1.58
2024-02-26T02:37:13.215Z,1.55
2024-02-26T02:39:40.428Z,1.54
2024-02-26T02:42:07.746Z,1.50
2024-02-26T02:44:35.063Z,1.45
2024-02-26T02:47:02.268Z,1.45
2024-02-26T02:49:29.602Z,1.44
2024-02-26T02:51:58.887Z,1.45
2024-02-26T02:54:26.288Z,1.42
2024-02-26T02:56:53.586Z,1.41
2024-02-26T02:59:20.873Z,1.39
2024-02-26T03:01:48.165Z,1.36
2024-02-26T03:04:15.537Z,1.34
2024-02-26T03:06:42.799Z,1.31
2024-02-26T03:09:10.253Z,1.24
2024-02-26T03:11:37.528Z,1.18
2024-02-26T03:14:05.874Z,1.16
2024-02-26T03:16:33.233Z,1.11
2024-02-26T03:19:00.703Z,1.05
2024-02-26T03:21:28.914Z,1.00
2024-02-26T03:23:56.653Z,0.98
2024-02-26T03:26:24.037Z,0.95
2024-02-26T03:28:51.255Z,0.93
2024-02-26T03:31:18.472Z,0.87
2024-02-26T03:33:45.920Z,0.85
2024-02-26T03:36:13.508Z,0.82
2024-02-26T03:38:41.656Z,0.78
2024-02-26T03:41:09.984Z,0.78
2024-02-26T03:43:37.224Z,0.79
2024-02-26T03:46:04.608Z,0.77
2024-02-26T03:48:32.113Z,0.77
2024-02-26T03:50:59.365Z,0.80
2024-02-26T03:53:26.602Z,0.79
2024-02-26T03:55:54.074Z,0.82
2024-02-26T03:58:21.276Z,0.84
2024-02-26T04:00:51.240Z,0.76
2024-02-26T04:03:18.496Z,0.70
2024-02-26T04:05:45.887Z,0.68
2024-02-26T04:08:13.415Z,0.64
2024-02-26T04:10:40.743Z,0.58
2024-02-26T04:13:09.034Z,0.53
2024-02-26T04:15:36.674Z,0.51
2024-02-26T04:18:04.542Z,0.49
2024-02-26T04:20:31.940Z,0.48
2024-02-26T04:22:59.182Z,0.44
2024-02-26T04:25:26.423Z,0.39
2024-02-26T04:27:53.734Z,0.36
2024-02-26T04:30:21.071Z,0.33
2024-02-26T04:32:48.559Z,0.32
2024-02-26T04:35:15.998Z,0.33
2024-02-26T04:37:43.123Z,0.28
2024-02-26T04:40:10.725Z,0.24
2024-02-26T04:42:38.056Z,0.23
2024-02-26T04:45:05.718Z,0.24
2024-02-26T04:47:32.900Z,0.24
2024-02-26T04:50:00.261Z,0.19
2024-02-26T04:52:27.539Z,0.14
2024-02-26T04:54:55.851Z,0.14
2024-02-26T04:57:23.617Z,0.09
2024-02-26T04:59:50.956Z,0.08
2024-02-26T05:02:18.292Z,0.05
2024-02-26T05:04:45.520Z,0.04
2024-02-26T05:07:14.088Z,0.03
2024-02-26T05:09:43.495Z,0.02
2024-02-26T05:12:11.641Z,0.03
2024-02-26T05:14:38.878Z,-0.01
2024-02-26T05:17:07.399Z,-0.03
2024-02-26T05:19:34.643Z,-0.05
2024-02-26T05:22:01.942Z,-0.06
2024-02-26T05:24:29.451Z,-0.07
2024-02-26T05:26:57.074Z,-0.09
2024-02-26T05:29:24.281Z,-0.10
2024-02-26T05:31:51.578Z,-0.05
2024-02-26T05:34:19.167Z,-0.03
2024-02-26T05:36:46.558Z,0.02
2024-02-26T05:39:16.892Z,0.07
2024-02-26T05:41:46.106Z,0.12
2024-02-26T05:44:13.456Z,0.14
2024-02-26T05:46:40.760Z,0.12
2024-02-26T05:49:08.940Z,0.12
2024-02-26T05:51:36.266Z,0.13
2024-02-26T05:54:03.663Z,0.13
2024-02-26T05:56:30.905Z,0.15
2024-02-26T05:58:58.230Z,0.16
2024-02-26T06:01:27.286Z,0.17
2024-02-26T06:03:54.582Z,0.16
2024-02-26T06:06:24.472Z,0.18
2024-02-26T06:08:52.062Z,0.17
2024-02-26T06:11:19.606Z,0.20
2024-02-26T06:13:46.877Z,0.25
2024-02-26T06:16:14.216Z,0.29
2024-02-26T06:18:41.671Z,0.33
2024-02-26T06:21:12.404Z,0.36
2024-02-26T06:23:41.644Z,0.38
2024-02-26T06:26:09.013Z,0.41
2024-02-26T06:28:37.268Z,0.46
2024-02-26T06:31:04.862Z,0.47
2024-02-26T06:33:32.365Z,0.50
2024-02-26T06:36:00.195Z,0.57
2024-02-26T06:38:27.637Z,0.60
2024-02-26T06:40:55.089Z,0.67
2024-02-26T06:43:22.358Z,0.75
2024-02-26T06:45:49.588Z,0.84
2024-02-26T06:48:16.970Z,0.90
2024-02-26T06:50:44.348Z,0.99
2024-02-26T06:53:11.765Z,1.06
2024-02-26T06:55:41.627Z,1.16
2024-02-26T06:58:09.269Z,1.24
2024-02-26T07:00:37.081Z,1.33
2024-02-26T07:03:04.837Z,1.42
2024-02-26T07:05:32.413Z,1.50
2024-02-26T07:07:59.612Z,1.59
2024-02-26T07:10:26.793Z,1.67
2024-02-26T07:12:54.101Z,1.71
2024-02-26T07:15:21.326Z,1.78
2024-02-26T07:17:50.156Z,1.88
2024-02-26T07:20:19.681Z,1.98
2024-02-26T07:22:47.358Z,2.07
2024-02-26T07:25:15.027Z,2.21
2024-02-26T07:27:42.363Z,2.32
2024-02-26T07:30:10.860Z,2.41
2024-02-26T07:32:38.180Z,2.47
2024-02-26T07:35:06.644Z,2.57
2024-02-26T07:37:34.214Z,2.66
2024-02-26T07:40:01.596Z,2.72
2024-02-26T07:42:29.032Z,2.78
2024-02-26T07:44:57.145Z,2.87
2024-02-26T07:47:24.467Z,2.98
2024-02-26T07:49:51.867Z,3.10
2024-02-26T07:52:19.372Z,3.19
2024-02-26T07:54:46.626Z,3.30
2024-02-26T07:57:16.891Z,3.42
2024-02-26T07:59:44.367Z,3.54
2024-02-26T08:02:11.791Z,3.63
2024-02-26T08:04:39.075Z,3.75
2024-02-26T08:07:07.331Z,3.81
2024-02-26T08:09:35.053Z,3.90
2024-02-26T08:12:02.430Z,4.03
2024-02-26T08:14:29.633Z,4.15
2024-02-26T08:16:56.835Z,4.24
2024-02-26T08:19:24.202Z,4.32
2024-02-26T08:21:51.561Z,4.43
2024-02-26T08:24:19.180Z,4.50
2024-02-26T08:26:46.887Z,4.53
2024-02-26T08:29:14.196Z,4.68
2024-02-26T08:31:41.501Z,4.84
2024-02-26T08:34:08.824Z,4.92
2024-02-26T08:36:36.545Z,4.99
2024-02-26T08:39:04.168Z,5.05
2024-02-26T08:41:31.424Z,5.12
2024-02-26T08:43:59.601Z,5.21
2024-02-26T08:46:26.856Z,5.32
2024-02-26T08:48:54.332Z,5.42
2024-02-26T08:51:22.094Z,5.55
2024-02-26T08:53:49.805Z,5.72
2024-02-26T08:56:19.191Z,5.83
2024-02-26T08:58:50.127Z,5.95
2024-02-26T09:01:18.157Z,6.06
2024-02-26T09:03:45.605Z,6.13
2024-02-26T09:06:15.893Z,6.22
2024-02-26T09:08:43.261Z,6.32
2024-02-26T09:11:11.889Z,6.50
2024-02-26T09:13:39.181Z,6.61
2024-02-26T09:16:07.414Z,6.71
2024-02-26T09:18:36.916Z,6.81
2024-02-26T09:21:07.829Z,6.91
2024-02-26T09:23:36.538Z,7.03
2024-02-26T09:26:03.967Z,7.11
2024-02-26T09:28:33.137Z,7.22
2024-02-26T09:31:00.421Z,7.37
2024-02-26T09:33:27.870Z,7.47
2024-02-26T09:35:55.266Z,7.55
2024-02-26T09:38:22.651Z,7.65
2024-02-26T09:40:50.040Z,7.70
2024-02-26T09:43:19.132Z,7.80
2024-02-26T09:45:46.447Z,7.90
2024-02-26T09:48:14.914Z,7.99
2024-02-26T09:50:42.697Z,8.05
2024-02-26T09:53:11.790Z,8.09
2024-02-26T09:55:39.094Z,8.15
2024-02-26T09:58:07.797Z,8.22
2024-02-26T10:00:38.944Z,8.24
2024-02-26T10:03:08.040Z,8.37
2024-02-26T10:05:36.532Z,8.46
2024-02-26T10:08:05.856Z,8.45
2024-02-26T10:10:34.501Z,8.45
2024-02-26T10:13:02.726Z,8.45
2024-02-26T10:15:30.329Z,8.58
2024-02-26T10:17:58.158Z,8.68
2024-02-26T10:20:27.766Z,8.84
2024-02-26T10:22:55.112Z,8.87
2024-02-26T10:25:22.477Z,8.98
2024-02-26T10:27:49.710Z,8.97
2024-02-26T10:30:27.266Z,8.96
2024-02-26T10:32:54.828Z,9.05
2024-02-26T10:35:22.413Z,9.16
2024-02-26T10:37:51.275Z,9.19
2024-02-26T10:40:18.606Z,9.24
2024-02-26T10:42:48.519Z,9.28
2024-02-26T10:45:16.245Z,9.25
2024-02-26T10:47:43.966Z,9.19
2024-02-26T10:50:11.699Z,9.23
2024-02-26T10:52:39.013Z,9.20
2024-02-26T10:55:08.546Z,9.25
2024-02-26T10:57:42.256Z,9.32
2024-02-26T11:00:12.097Z,9.43
2024-02-26T11:02:39.990Z,9.48
2024-02-26T11:05:08.102Z,9.55
2024-02-26T11:07:38.561Z,9.61
2024-02-26T11:10:09.879Z,9.63
2024-02-26T11:12:39.026Z,9.73
2024-02-26T11:15:07.165Z,9.83
2024-02-26T11:17:35.793Z,9.85
2024-02-26T11:20:06.913Z,9.91
2024-02-26T11:22:34.987Z,9.93
2024-02-26T11:25:02.768Z,9.93
2024-02-26T11:27:34.378Z,9.99
2024-02-26T11:30:02.478Z,9.97
2024-02-26T11:32:32.890Z,10.10
2024-02-26T11:35:00.670Z,10.11
2024-02-26T11:37:28.161Z,10.11
2024-02-26T11:39:55.502Z,10.12
2024-02-26T11:42:30.223Z,10.16
2024-02-26T11:45:02.193Z,10.25
2024-02-26T11:47:30.003Z,10.31
2024-02-26T11:49:57.263Z,10.33
2024-02-26T11:52:24.801Z,10.36
2024-02-26T11:54:54.526Z,10.39
2024-02-26T11:57:34.181Z,10.35
2024-02-26T12:00:07.967Z,10.40
2024-02-26T12:02:49.218Z,10.41
2024-02-26T12:05:29.495Z,10.49
2024-02-26T12:08:01.229Z,10.59
2024-02-26T12:10:35.536Z,10.59
2024-02-26T12:13:18.743Z,10.58
2024-02-26T12:16:00.852Z,10.51
2024-02-26T12:18:30.982Z,10.53
2024-02-26T12:21:02.916Z,10.58
2024-02-26T12:23:30.629Z,10.60
2024-02-26T12:26:03.260Z,10.56
2024-02-26T12:28:32.038Z,10.61
2024-02-26T12:31:01.214Z,10.58
2024-02-26T12:33:29.934Z,10.54
2024-02-26T12:35:58.254Z,10.46
2024-02-26T12:38:25.742Z,10.46
2024-02-26T12:40:53.078Z,10.50
2024-02-26T12:43:20.758Z,10.51
2024-02-26T12:45:49.148Z,10.49
2024-02-26T12:48:16.975Z,10.49
2024-02-26T12:50:49.009Z,10.39
2024-02-26T12:53:16.677Z,10.29
2024-02-26T12:55:44.354Z,10.28
2024-02-26T12:58:12.529Z,10.19
2024-02-26T13:00:39.919Z,10.16
2024-02-26T13:03:07.588Z,10.19
2024-02-26T13:05:35.285Z,10.12
2024-02-26T13:08:05.498Z,10.06
2024-02-26T13:10:35.979Z,9.99
2024-02-26T13:13:04.055Z,9.95
2024-02-26T13:15:31.552Z,9.89
2024-02-26T13:17:59.673Z,9.83
2024-02-26T13:20:31.649Z,9.72
2024-02-26T13:23:07.797Z,9.65
2024-02-26T13:25:43.837Z,9.66
2024-02-26T13:28:19.269Z,9.66
2024-02-26T13:30:54.267Z,9.66
2024-02-26T13:33:22.523Z,9.60
2024-02-26T13:35:49.911Z,9.55
2024-02-26T13:38:17.347Z,9.51
2024-02-26T13:40:44.613Z,9.35
2024-02-26T13:43:11.918Z,9.25
2024-02-26T13:45:40.365Z,9.08
2024-02-26T13:48:12.996Z,9.11
2024-02-26T13:50:41.168Z,9.04
2024-02-26T13:53:08.550Z,8.89
2024-02-26T13:55:35.826Z,8.82
2024-02-26T13:58:03.201Z,8.70
2024-02-26T14:00:33.202Z,8.80
2024-02-26T14:03:01.762Z,8.80
2024-02-26T14:05:29.065Z,8.75
2024-02-26T14:07:57.014Z,8.71
2024-02-26T14:10:24.424Z,8.65
2024-02-26T14:12:51.845Z,8.59
2024-02-26T14:15:19.345Z,8.57
2024-02-26T14:17:47.555Z,8.60
2024-02-26T14:20:15.056Z,8.50
2024-02-26T14:22:42.281Z,8.30
2024-02-26T14:25:10.903Z,8.29
2024-02-26T14:27:38.264Z,8.25
2024-02-26T14:30:06.173Z,8.22
2024-02-26T14:32:38.190Z,8.20
2024-02-26T14:35:08.866Z,8.15
2024-02-26T14:37:37.993Z,7.88
2024-02-26T14:40:06.675Z,7.96
2024-02-26T14:42:34.033Z,7.92
2024-02-26T14:45:01.466Z,7.83
2024-02-26T14:47:28.826Z,7.81
2024-02-26T14:49:56.097Z,7.78
2024-02-26T14:52:23.412Z,7.48
2024-02-26T14:54:52.698Z,7.40
2024-02-26T14:57:20.207Z,7.31
2024-02-26T14:59:47.535Z,7.22
2024-02-26T15:02:15.597Z,7.20
2024-02-26T15:04:42.982Z,7.16
2024-02-26T15:07:13.640Z,7.00
2024-02-26T15:09:43.157Z,6.97
2024-02-26T15:12:10.823Z,6.87
2024-02-26T15:14:38.158Z,6.83
2024-02-26T15:17:05.730Z,6.77
2024-02-26T15:19:33.305Z,6.79
2024-02-26T15:22:00.698Z,6.71
2024-02-26T15:24:28.794Z,6.55
2024-02-26T15:26:56.103Z,6.50
2024-02-26T15:29:23.404Z,6.44
2024-02-26T15:31:50.731Z,6.41
2024-02-26T15:34:17.974Z,6.33
2024-02-26T15:36:45.449Z,6.27
2024-02-26T15:39:12.681Z,6.19
2024-02-26T15:41:40.318Z,6.09
2024-02-26T15:44:07.825Z,6.05
2024-02-26T15:46:35.190Z,6.03
2024-02-26T15:49:03.361Z,5.86
2024-02-26T15:51:30.730Z,5.86
2024-02-26T15:53:58.097Z,5.87
2024-02-26T15:56:26.119Z,5.76
2024-02-26T15:58:54.133Z,5.73
2024-02-26T16:01:24.771Z,5.67
2024-02-26T16:03:55.882Z,5.68
2024-02-26T16:06:29.858Z,5.59
2024-02-26T16:08:57.384Z,5.60
2024-02-26T16:11:24.754Z,5.52
2024-02-26T16:14:09.963Z,5.52
2024-02-26T16:16:37.390Z,5.39
2024-02-26T16:19:11.101Z,5.28
2024-02-26T16:21:39.221Z,5.28
2024-02-26T16:24:07.184Z,5.24
2024-02-26T16:26:34.530Z,5.19
2024-02-26T16:29:01.773Z,5.17
2024-02-26T16:31:30.450Z,5.16
2024-02-26T16:33:57.919Z,5.21
2024-02-26T16:36:25.365Z,5.23
2024-02-26T16:38:52.697Z,5.18
2024-02-26T16:41:19.938Z,5.19
2024-02-26T16:43:47.668Z,5.14
2024-02-26T16:46:16.916Z,5.05
2024-02-26T16:48:44.794Z,5.04
2024-02-26T16:51:12.214Z,5.01
2024-02-26T16:53:39.407Z,4.98
2024-02-26T16:56:11.390Z,4.90
2024-02-26T16:58:38.778Z,4.94
2024-02-26T17:01:06.777Z,4.93
2024-02-26T17:03:39.446Z,4.91
2024-02-26T17:06:07.126Z,4.86
2024-02-26T17:08:35.077Z,4.89
2024-02-26T17:11:02.474Z,4.84
2024-02-26T17:13:32.859Z,4.75
2024-02-26T17:16:00.208Z,4.74
2024-02-26T17:18:27.515Z,4.71
2024-02-26T17:20:56.967Z,4.68
2024-02-26T17:23:24.238Z,4.66
2024-02-26T17:25:51.501Z,4.67
2024-02-26T17:28:19.734Z,4.66
2024-02-26T17:30:47.095Z,4.66
2024-02-26T17:33:14.382Z,4.70
2024-02-26T17:35:41.967Z,4.71
2024-02-26T17:38:09.158Z,4.75
2024-02-26T17:40:37.766Z,4.65
2024-02-26T17:43:04.981Z,4.70
2024-02-26T17:45:32.460Z,4.74
2024-02-26T17:47:59.873Z,4.76
2024-02-26T17:50:28.264Z,4.81
2024-02-26T17:52:57.976Z,4.89
2024-02-26T17:55:25.280Z,4.96
2024-02-26T17:57:52.816Z,4.99
2024-02-26T18:00:20.648Z,4.99
2024-02-26T18:02:48.250Z,4.91
2024-02-26T18:05:15.746Z,4.90
2024-02-26T18:07:44.222Z,4.92
2024-02-26T18:10:13.561Z,4.90
2024-02-26T18:12:41.567Z,4.94
2024-02-26T18:15:09.452Z,4.96
2024-02-26T18:17:40.013Z,4.98
2024-02-26T18:20:09.777Z,4.92
2024-02-26T18:22:37.996Z,4.94
2024-02-26T18:25:06.169Z,4.98
2024-02-26T18:27:35.471Z,5.02
2024-02-26T18:30:04.514Z,5.01
2024-02-26T18:32:32.633Z,4.99
2024-02-26T18:35:01.103Z,4.98
2024-02-26T18:37:29.983Z,4.95
2024-02-26T18:39:58.097Z,4.95
2024-02-26T18:42:31.290Z,4.95
2024-02-26T18:45:00.195Z,4.95
2024-02-26T18:47:28.537Z,4.98
2024-02-26T18:49:58.638Z,4.97
2024-02-26T18:52:26.936Z,4.94
2024-02-26T18:54:55.144Z,4.90
2024-02-26T18:57:25.068Z,4.93
2024-02-26T18:59:53.671Z,4.97
2024-02-26T19:02:22.339Z,4.94
2024-02-26T19:04:50.923Z,4.93
2024-02-26T19:07:19.613Z,4.88
2024-02-26T19:09:47.882Z,4.86
2024-02-26T19:12:17.492Z,4.84
2024-02-26T19:14:46.550Z,4.82
2024-02-26T19:17:15.371Z,4.84
2024-02-26T19:19:43.909Z,4.77
2024-02-26T19:22:14.366Z,4.81
2024-02-26T19:24:44.941Z,4.84
2024-02-26T19:27:14.752Z,4.83
2024-02-26T19:29:43.224Z,4.86
2024-02-26T19:32:12.713Z,4.87
2024-02-26T19:34:43.895Z,4.89
2024-02-26T19:37:14.272Z,4.87
2024-02-26T19:39:43.168Z,4.93
2024-02-26T19:42:13.950Z,5.02
2024-02-26T19:44:42.339Z,4.94
2024-02-26T19:47:10.592Z,4.99
2024-02-26T19:49:45.084Z,5.00
2024-02-26T19:52:16.024Z,4.95
2024-02-26T19:54:48.353Z,4.98
2024-02-26T19:57:17.174Z,5.01
2024-02-26T19:59:46.003Z,4.97
2024-02-26T20:02:15.974Z,4.95
2024-02-26T20:04:44.674Z,4.99
2024-02-26T20:07:15.743Z,5.02
2024-02-26T20:09:44.214Z,4.99
2024-02-26T20:12:13.095Z,4.99
2024-02-26T20:14:41.567Z,5.07
2024-02-26T20:17:13.237Z,5.11
2024-02-26T20:19:44.712Z,5.16
2024-02-26T20:22:15.411Z,5.07
2024-02-26T20:24:43.977Z,5.06
2024-02-26T20:27:12.683Z,5.09
2024-02-26T20:29:46.653Z,5.03
2024-02-26T20:32:15.058Z,4.91
2024-02-26T20:34:43.957Z,4.97
2024-02-26T20:37:12.360Z,4.99
2024-02-26T20:39:40.698Z,4.99
2024-02-26T20:42:09.188Z,5.05
2024-02-26T20:44:39.064Z,5.07
2024-02-26T20:47:07.659Z,5.14
2024-02-26T20:49:35.958Z,5.12
2024-02-26T20:52:04.431Z,5.17
2024-02-26T20:54:34.300Z,5.14
2024-02-26T20:57:04.204Z,5.15
2024-02-26T20:59:33.880Z,5.17
2024-02-26T21:02:02.123Z,5.17
2024-02-26T21:04:32.036Z,5.18
2024-02-26T21:07:00.173Z,5.20
2024-02-26T21:09:27.864Z,5.21
2024-02-26T21:11:55.871Z,5.19
2024-02-26T21:14:23.372Z,5.20
2024-02-26T21:16:51.085Z,5.25
2024-02-26T21:19:19.107Z,5.28
2024-02-26T21:21:47.210Z,5.36
2024-02-26T21:24:14.428Z,5.41
2024-02-26T21:26:42.285Z,5.37
2024-02-26T21:29:09.525Z,5.45
2024-02-26T21:31:40.413Z,5.43
2024-02-26T21:34:07.804Z,5.53
2024-02-26T21:36:36.417Z,5.59
2024-02-26T21:39:04.469Z,5.62
2024-02-26T21:41:31.731Z,5.66
2024-02-26T21:44:07.293Z,5.70
2024-02-26T21:46:36.610Z,5.71
2024-02-26T21:49:04.178Z,5.73
2024-02-26T21:51:31.606Z,5.76
2024-02-26T21:53:59.042Z,5.78
2024-02-26T21:56:26.544Z,5.80
2024-02-26T21:58:53.746Z,5.78
2024-02-26T22:01:21.229Z,5.80
2024-02-26T22:03:48.674Z,5.84
2024-02-26T22:06:19.132Z,5.88
2024-02-26T22:08:46.396Z,5.75
2024-02-26T22:11:13.685Z,5.83
2024-02-26T22:13:40.968Z,5.80
2024-02-26T22:16:11.149Z,5.87
2024-02-26T22:18:38.482Z,5.90
2024-02-26T22:21:06.222Z,5.91
2024-02-26T22:23:33.461Z,5.91
2024-02-26T22:26:00.737Z,5.92
2024-02-26T22:28:28.019Z,5.90
2024-02-26T22:30:55.403Z,5.90
2024-02-26T22:33:22.835Z,5.87
2024-02-26T22:35:50.140Z,5.89
2024-02-26T22:38:18.304Z,5.91
2024-02-26T22:40:45.598Z,5.78
2024-02-26T22:43:13.478Z,5.88
2024-02-26T22:45:41.071Z,5.88
2024-02-26T22:48:09.155Z,5.80
2024-02-26T22:50:36.933Z,5.77
2024-02-26T22:53:04.467Z,5.79
2024-02-26T22:55:31.725Z,5.69
2024-02-26T22:57:58.967Z,5.62
2024-02-26T23:00:28.346Z,5.66
2024-02-26T23:02:56.175Z,5.59
2024-02-26T23:05:25.229Z,5.53
2024-02-26T23:07:53.688Z,5.62
2024-02-26T23:10:21.385Z,5.60
2024-02-26T23:12:48.692Z,5.59
2024-02-26T23:15:16.152Z,5.57
2024-02-26T23:17:44.097Z,5.49
2024-02-26T23:20:12.363Z,5.49
2024-02-26T23:22:43.572Z,5.45
2024-02-26T23:25:12.086Z,5.51
2024-02-26T23:27:39.774Z,5.58
2024-02-26T23:30:07.721Z,5.50
2024-02-26T23:32:35.295Z,5.50
2024-02-26T23:35:02.924Z,5.46
2024-02-26T23:37:30.270Z,5.54
2024-02-26T23:39:57.453Z,5.60
2024-02-26T23:42:24.809Z,5.50
2024-02-26T23:44:52.923Z,5.39
2024-02-26T23:47:20.256Z,5.43
2024-02-26T23:49:47.527Z,5.45
2024-02-26T23:52:14.862Z,5.38
2024-02-26T23:54:42.224Z,5.40
2024-02-26T23:57:09.519Z,5.43
2024-02-26T23:59:36.901Z,5.39
